sensor_id;sensor_type;location;lat;lon;timestamp;P1;durP1;ratioP1;P2;durP2;ratioP2
22687;SDS011;11511;51.514;7.080;2023-04-09T00:01:52;49.28;;;25.30;;
22687;SDS011;11511;51.514;7.080;2023-04-09T00:04:18;49.45;;;27.38;;
22687;SDS011;11511;51.514;7.080;2023-04-09T00:06:46;52.22;;;27.75;;
22687;SDS011;11511;51.514;7.080;2023-04-09T00:09:12;51.50;;;28.30;;
22687;SDS011;11511;51.514;7.080;2023-04-09T00:11:38;53.85;;;28.40;;
22687;SDS011;11511;51.514;7.080;2023-04-09T00:14:04;52.50;;;28.92;;
22687;SDS011;11511;51.514;7.080;2023-04-09T00:16:30;51.50;;;25.70;;
22687;SDS011;11511;51.514;7.080;2023-04-09T00:18:56;49.15;;;29.10;;
22687;SDS011;11511;51.514;7.080;2023-04-09T00:21:22;52.47;;;29.23;;
22687;SDS011;11511;51.514;7.080;2023-04-09T00:23:48;53.55;;;30.20;;
22687;SDS011;11511;51.514;7.080;2023-04-09T00:26:14;56.15;;;30.58;;
22687;SDS011;11511;51.514;7.080;2023-04-09T00:28:40;56.72;;;30.70;;
22687;SDS011;11511;51.514;7.080;2023-04-09T00:31:06;57.22;;;30.45;;
22687;SDS011;11511;51.514;7.080;2023-04-09T00:33:33;55.60;;;30.02;;
22687;SDS011;11511;51.514;7.080;2023-04-09T00:36:00;50.33;;;29.60;;
22687;SDS011;11511;51.514;7.080;2023-04-09T00:38:26;59.75;;;32.15;;
22687;SDS011;11511;51.514;7.080;2023-04-09T00:40:52;55.42;;;31.02;;
22687;SDS011;11511;51.514;7.080;2023-04-09T00:43:18;56.70;;;30.73;;
22687;SDS011;11511;51.514;7.080;2023-04-09T00:45:44;58.97;;;32.55;;
22687;SDS011;11511;51.514;7.080;2023-04-09T00:48:11;53.75;;;31.35;;
22687;SDS011;11511;51.514;7.080;2023-04-09T00:50:37;56.60;;;30.60;;
22687;SDS011;11511;51.514;7.080;2023-04-09T00:53:04;56.78;;;30.85;;
22687;SDS011;11511;51.514;7.080;2023-04-09T00:55:30;56.22;;;29.73;;
22687;SDS011;11511;51.514;7.080;2023-04-09T00:57:56;60.22;;;30.38;;
22687;SDS011;11511;51.514;7.080;2023-04-09T01:00:22;61.47;;;31.17;;
22687;SDS011;11511;51.514;7.080;2023-04-09T01:02:48;57.88;;;31.45;;
22687;SDS011;11511;51.514;7.080;2023-04-09T01:05:16;60.13;;;32.65;;
22687;SDS011;11511;51.514;7.080;2023-04-09T01:08:03;62.53;;;31.50;;
22687;SDS011;11511;51.514;7.080;2023-04-09T01:10:37;51.92;;;29.95;;
22687;SDS011;11511;51.514;7.080;2023-04-09T01:13:18;60.22;;;30.52;;
22687;SDS011;11511;51.514;7.080;2023-04-09T01:15:49;55.95;;;29.98;;
22687;SDS011;11511;51.514;7.080;2023-04-09T01:21:04;61.97;;;31.17;;
22687;SDS011;11511;51.514;7.080;2023-04-09T01:23:33;56.92;;;31.55;;
22687;SDS011;11511;51.514;7.080;2023-04-09T01:26:03;59.42;;;31.80;;
22687;SDS011;11511;51.514;7.080;2023-04-09T01:28:32;60.78;;;30.50;;
22687;SDS011;11511;51.514;7.080;2023-04-09T01:31:00;56.03;;;28.70;;
22687;SDS011;11511;51.514;7.080;2023-04-09T01:33:28;61.05;;;29.63;;
22687;SDS011;11511;51.514;7.080;2023-04-09T01:35:55;60.92;;;31.15;;
22687;SDS011;11511;51.514;7.080;2023-04-09T01:38:22;59.55;;;31.20;;
22687;SDS011;11511;51.514;7.080;2023-04-09T01:40:49;60.00;;;32.13;;
22687;SDS011;11511;51.514;7.080;2023-04-09T01:43:15;59.95;;;31.23;;
22687;SDS011;11511;51.514;7.080;2023-04-09T01:45:43;65.65;;;32.22;;
22687;SDS011;11511;51.514;7.080;2023-04-09T01:48:10;63.10;;;31.40;;
22687;SDS011;11511;51.514;7.080;2023-04-09T01:50:37;56.90;;;31.88;;
22687;SDS011;11511;51.514;7.080;2023-04-09T01:53:03;61.42;;;32.42;;
22687;SDS011;11511;51.514;7.080;2023-04-09T01:55:29;57.75;;;30.90;;
22687;SDS011;11511;51.514;7.080;2023-04-09T01:57:55;65.72;;;32.78;;
22687;SDS011;11511;51.514;7.080;2023-04-09T02:00:21;66.03;;;32.03;;
22687;SDS011;11511;51.514;7.080;2023-04-09T02:05:25;58.53;;;30.98;;
22687;SDS011;11511;51.514;7.080;2023-04-09T02:07:54;62.38;;;31.63;;
22687;SDS011;11511;51.514;7.080;2023-04-09T02:13:15;60.15;;;31.20;;
22687;SDS011;11511;51.514;7.080;2023-04-09T02:15:42;64.90;;;30.27;;
22687;SDS011;11511;51.514;7.080;2023-04-09T02:18:19;64.72;;;30.98;;
22687;SDS011;11511;51.514;7.080;2023-04-09T02:20:45;58.75;;;31.33;;
22687;SDS011;11511;51.514;7.080;2023-04-09T02:23:11;62.30;;;31.25;;
22687;SDS011;11511;51.514;7.080;2023-04-09T02:25:37;63.15;;;30.70;;
22687;SDS011;11511;51.514;7.080;2023-04-09T02:28:03;61.75;;;32.28;;
22687;SDS011;11511;51.514;7.080;2023-04-09T02:30:29;58.42;;;30.63;;
22687;SDS011;11511;51.514;7.080;2023-04-09T02:32:55;65.20;;;31.92;;
22687;SDS011;11511;51.514;7.080;2023-04-09T02:35:21;64.57;;;31.38;;
22687;SDS011;11511;51.514;7.080;2023-04-09T02:37:47;61.55;;;31.85;;
22687;SDS011;11511;51.514;7.080;2023-04-09T02:40:13;64.38;;;31.75;;
22687;SDS011;11511;51.514;7.080;2023-04-09T02:42:39;67.63;;;32.10;;
22687;SDS011;11511;51.514;7.080;2023-04-09T02:45:05;66.45;;;31.63;;
22687;SDS011;11511;51.514;7.080;2023-04-09T02:47:31;62.25;;;31.95;;
22687;SDS011;11511;51.514;7.080;2023-04-09T02:49:57;65.03;;;30.88;;
22687;SDS011;11511;51.514;7.080;2023-04-09T02:52:23;65.50;;;31.23;;
22687;SDS011;11511;51.514;7.080;2023-04-09T02:54:50;65.85;;;32.33;;
22687;SDS011;11511;51.514;7.080;2023-04-09T02:57:16;68.90;;;31.02;;
22687;SDS011;11511;51.514;7.080;2023-04-09T02:59:43;69.00;;;32.05;;
22687;SDS011;11511;51.514;7.080;2023-04-09T03:02:09;72.68;;;31.88;;
22687;SDS011;11511;51.514;7.080;2023-04-09T03:04:35;62.28;;;31.50;;
22687;SDS011;11511;51.514;7.080;2023-04-09T03:07:01;68.22;;;32.17;;
22687;SDS011;11511;51.514;7.080;2023-04-09T03:09:27;64.70;;;32.47;;
22687;SDS011;11511;51.514;7.080;2023-04-09T03:11:54;67.78;;;32.63;;
22687;SDS011;11511;51.514;7.080;2023-04-09T03:14:21;66.50;;;32.15;;
22687;SDS011;11511;51.514;7.080;2023-04-09T03:16:47;73.28;;;33.30;;
22687;SDS011;11511;51.514;7.080;2023-04-09T03:19:13;68.72;;;31.52;;
22687;SDS011;11511;51.514;7.080;2023-04-09T03:21:39;68.20;;;33.00;;
22687;SDS011;11511;51.514;7.080;2023-04-09T03:24:05;72.88;;;31.95;;
22687;SDS011;11511;51.514;7.080;2023-04-09T03:26:31;65.72;;;33.08;;
22687;SDS011;11511;51.514;7.080;2023-04-09T03:29:00;68.47;;;31.05;;
22687;SDS011;11511;51.514;7.080;2023-04-09T03:31:26;72.38;;;33.22;;
22687;SDS011;11511;51.514;7.080;2023-04-09T03:33:53;70.68;;;33.78;;
22687;SDS011;11511;51.514;7.080;2023-04-09T03:36:19;72.00;;;34.17;;
22687;SDS011;11511;51.514;7.080;2023-04-09T03:38:45;72.60;;;34.35;;
22687;SDS011;11511;51.514;7.080;2023-04-09T03:41:11;75.53;;;35.15;;
22687;SDS011;11511;51.514;7.080;2023-04-09T03:43:37;74.30;;;35.10;;
22687;SDS011;11511;51.514;7.080;2023-04-09T03:46:15;70.18;;;33.33;;
22687;SDS011;11511;51.514;7.080;2023-04-09T03:48:41;70.72;;;33.75;;
22687;SDS011;11511;51.514;7.080;2023-04-09T03:51:14;71.80;;;33.28;;
22687;SDS011;11511;51.514;7.080;2023-04-09T03:53:41;69.43;;;34.10;;
22687;SDS011;11511;51.514;7.080;2023-04-09T03:56:07;71.35;;;34.03;;
22687;SDS011;11511;51.514;7.080;2023-04-09T03:58:33;74.78;;;33.15;;
22687;SDS011;11511;51.514;7.080;2023-04-09T04:00:59;73.57;;;34.58;;
22687;SDS011;11511;51.514;7.080;2023-04-09T04:03:26;76.40;;;35.17;;
22687;SDS011;11511;51.514;7.080;2023-04-09T04:05:51;72.00;;;34.78;;
22687;SDS011;11511;51.514;7.080;2023-04-09T04:08:17;73.38;;;34.88;;
22687;SDS011;11511;51.514;7.080;2023-04-09T04:10:43;74.95;;;34.03;;
22687;SDS011;11511;51.514;7.080;2023-04-09T04:13:09;67.22;;;32.58;;
22687;SDS011;11511;51.514;7.080;2023-04-09T04:15:39;71.15;;;33.78;;
22687;SDS011;11511;51.514;7.080;2023-04-09T04:18:06;75.85;;;33.92;;
22687;SDS011;11511;51.514;7.080;2023-04-09T04:20:32;77.30;;;34.70;;
22687;SDS011;11511;51.514;7.080;2023-04-09T04:22:58;73.60;;;32.88;;
22687;SDS011;11511;51.514;7.080;2023-04-09T04:25:24;68.32;;;32.75;;
22687;SDS011;11511;51.514;7.080;2023-04-09T04:27:50;82.70;;;36.83;;
22687;SDS011;11511;51.514;7.080;2023-04-09T04:30:16;73.00;;;34.58;;
22687;SDS011;11511;51.514;7.080;2023-04-09T04:32:42;69.18;;;33.30;;
22687;SDS011;11511;51.514;7.080;2023-04-09T04:35:08;75.53;;;34.88;;
22687;SDS011;11511;51.514;7.080;2023-04-09T04:37:34;75.38;;;35.95;;
22687;SDS011;11511;51.514;7.080;2023-04-09T04:40:00;74.75;;;33.25;;
22687;SDS011;11511;51.514;7.080;2023-04-09T04:42:27;68.10;;;33.85;;
22687;SDS011;11511;51.514;7.080;2023-04-09T04:44:53;72.30;;;33.83;;
22687;SDS011;11511;51.514;7.080;2023-04-09T04:47:19;77.90;;;35.05;;
22687;SDS011;11511;51.514;7.080;2023-04-09T04:49:45;78.15;;;35.33;;
22687;SDS011;11511;51.514;7.080;2023-04-09T04:52:11;79.63;;;35.33;;
22687;SDS011;11511;51.514;7.080;2023-04-09T04:54:37;81.45;;;37.90;;
22687;SDS011;11511;51.514;7.080;2023-04-09T04:57:04;78.38;;;36.08;;
22687;SDS011;11511;51.514;7.080;2023-04-09T04:59:30;81.35;;;37.35;;
22687;SDS011;11511;51.514;7.080;2023-04-09T05:01:56;73.20;;;35.05;;
22687;SDS011;11511;51.514;7.080;2023-04-09T05:04:22;76.65;;;34.70;;
22687;SDS011;11511;51.514;7.080;2023-04-09T05:06:48;79.93;;;38.88;;
22687;SDS011;11511;51.514;7.080;2023-04-09T05:09:14;77.78;;;37.55;;
22687;SDS011;11511;51.514;7.080;2023-04-09T05:11:40;83.15;;;38.67;;
22687;SDS011;11511;51.514;7.080;2023-04-09T05:14:06;76.00;;;36.60;;
22687;SDS011;11511;51.514;7.080;2023-04-09T05:16:32;73.05;;;35.83;;
22687;SDS011;11511;51.514;7.080;2023-04-09T05:18:58;80.40;;;36.05;;
22687;SDS011;11511;51.514;7.080;2023-04-09T05:21:24;86.32;;;38.60;;
22687;SDS011;11511;51.514;7.080;2023-04-09T05:23:51;81.47;;;36.92;;
22687;SDS011;11511;51.514;7.080;2023-04-09T05:26:18;83.88;;;38.65;;
22687;SDS011;11511;51.514;7.080;2023-04-09T05:28:45;81.90;;;37.38;;
22687;SDS011;11511;51.514;7.080;2023-04-09T05:31:11;82.43;;;38.35;;
22687;SDS011;11511;51.514;7.080;2023-04-09T05:33:39;81.40;;;38.40;;
22687;SDS011;11511;51.514;7.080;2023-04-09T05:36:05;86.68;;;39.35;;
22687;SDS011;11511;51.514;7.080;2023-04-09T05:38:31;87.30;;;39.13;;
22687;SDS011;11511;51.514;7.080;2023-04-09T05:40:58;91.50;;;39.38;;
22687;SDS011;11511;51.514;7.080;2023-04-09T05:43:24;90.82;;;40.75;;
22687;SDS011;11511;51.514;7.080;2023-04-09T05:45:50;85.63;;;39.50;;
22687;SDS011;11511;51.514;7.080;2023-04-09T05:48:16;86.53;;;39.40;;
22687;SDS011;11511;51.514;7.080;2023-04-09T05:50:48;90.50;;;41.10;;
22687;SDS011;11511;51.514;7.080;2023-04-09T05:53:16;91.93;;;41.42;;
22687;SDS011;11511;51.514;7.080;2023-04-09T05:55:43;89.57;;;41.30;;
22687;SDS011;11511;51.514;7.080;2023-04-09T05:58:08;89.63;;;40.97;;
22687;SDS011;11511;51.514;7.080;2023-04-09T06:00:34;87.50;;;40.95;;
22687;SDS011;11511;51.514;7.080;2023-04-09T06:03:01;92.70;;;42.20;;
22687;SDS011;11511;51.514;7.080;2023-04-09T06:05:27;91.30;;;41.72;;
22687;SDS011;11511;51.514;7.080;2023-04-09T06:07:53;86.65;;;39.92;;
22687;SDS011;11511;51.514;7.080;2023-04-09T06:10:19;94.45;;;42.20;;
22687;SDS011;11511;51.514;7.080;2023-04-09T06:12:45;90.15;;;42.72;;
22687;SDS011;11511;51.514;7.080;2023-04-09T06:15:12;87.45;;;41.33;;
22687;SDS011;11511;51.514;7.080;2023-04-09T06:17:38;88.60;;;39.63;;
22687;SDS011;11511;51.514;7.080;2023-04-09T06:20:05;87.35;;;41.47;;
22687;SDS011;11511;51.514;7.080;2023-04-09T06:22:31;85.68;;;40.20;;
22687;SDS011;11511;51.514;7.080;2023-04-09T06:24:57;81.20;;;40.85;;
22687;SDS011;11511;51.514;7.080;2023-04-09T06:27:23;83.47;;;40.10;;
22687;SDS011;11511;51.514;7.080;2023-04-09T06:29:49;74.63;;;39.65;;
22687;SDS011;11511;51.514;7.080;2023-04-09T06:32:15;71.05;;;33.42;;
22687;SDS011;11511;51.514;7.080;2023-04-09T06:34:41;69.03;;;33.90;;
22687;SDS011;11511;51.514;7.080;2023-04-09T06:37:07;65.78;;;33.92;;
22687;SDS011;11511;51.514;7.080;2023-04-09T06:39:33;61.20;;;32.85;;
22687;SDS011;11511;51.514;7.080;2023-04-09T06:41:59;67.43;;;34.85;;
22687;SDS011;11511;51.514;7.080;2023-04-09T06:44:25;61.30;;;33.42;;
22687;SDS011;11511;51.514;7.080;2023-04-09T06:46:51;66.78;;;32.63;;
22687;SDS011;11511;51.514;7.080;2023-04-09T06:49:17;62.30;;;33.90;;
22687;SDS011;11511;51.514;7.080;2023-04-09T06:51:43;58.17;;;31.15;;
22687;SDS011;11511;51.514;7.080;2023-04-09T06:54:09;52.38;;;29.00;;
22687;SDS011;11511;51.514;7.080;2023-04-09T06:56:35;45.15;;;25.75;;
22687;SDS011;11511;51.514;7.080;2023-04-09T06:59:01;47.72;;;27.77;;
22687;SDS011;11511;51.514;7.080;2023-04-09T07:01:27;51.67;;;27.52;;
22687;SDS011;11511;51.514;7.080;2023-04-09T07:03:53;38.95;;;22.85;;
22687;SDS011;11511;51.514;7.080;2023-04-09T07:06:19;42.00;;;25.63;;
22687;SDS011;11511;51.514;7.080;2023-04-09T07:08:45;39.00;;;24.05;;
22687;SDS011;11511;51.514;7.080;2023-04-09T07:11:11;36.67;;;23.73;;
22687;SDS011;11511;51.514;7.080;2023-04-09T07:13:37;38.05;;;22.48;;
22687;SDS011;11511;51.514;7.080;2023-04-09T07:16:03;37.30;;;23.83;;
22687;SDS011;11511;51.514;7.080;2023-04-09T07:18:29;40.33;;;23.45;;
22687;SDS011;11511;51.514;7.080;2023-04-09T07:20:55;32.05;;;21.60;;
22687;SDS011;11511;51.514;7.080;2023-04-09T07:23:21;30.27;;;20.30;;
22687;SDS011;11511;51.514;7.080;2023-04-09T07:25:47;32.75;;;20.27;;
22687;SDS011;11511;51.514;7.080;2023-04-09T07:28:13;31.00;;;19.80;;
22687;SDS011;11511;51.514;7.080;2023-04-09T07:30:39;28.98;;;19.25;;
22687;SDS011;11511;51.514;7.080;2023-04-09T07:33:06;32.30;;;19.85;;
22687;SDS011;11511;51.514;7.080;2023-04-09T07:35:32;27.27;;;17.67;;
22687;SDS011;11511;51.514;7.080;2023-04-09T07:37:58;26.13;;;16.48;;
22687;SDS011;11511;51.514;7.080;2023-04-09T07:40:24;24.60;;;16.70;;
22687;SDS011;11511;51.514;7.080;2023-04-09T07:42:51;29.48;;;17.00;;
22687;SDS011;11511;51.514;7.080;2023-04-09T07:45:17;25.10;;;16.17;;
22687;SDS011;11511;51.514;7.080;2023-04-09T07:47:43;23.70;;;16.65;;
22687;SDS011;11511;51.514;7.080;2023-04-09T07:50:10;23.17;;;13.73;;
22687;SDS011;11511;51.514;7.080;2023-04-09T07:52:36;23.10;;;15.45;;
22687;SDS011;11511;51.514;7.080;2023-04-09T07:55:02;22.20;;;14.30;;
22687;SDS011;11511;51.514;7.080;2023-04-09T07:57:29;21.40;;;14.98;;
22687;SDS011;11511;51.514;7.080;2023-04-09T07:59:56;21.83;;;14.68;;
22687;SDS011;11511;51.514;7.080;2023-04-09T08:02:23;22.13;;;14.07;;
22687;SDS011;11511;51.514;7.080;2023-04-09T08:04:49;19.23;;;13.80;;
22687;SDS011;11511;51.514;7.080;2023-04-09T08:07:15;22.20;;;13.93;;
22687;SDS011;11511;51.514;7.080;2023-04-09T08:09:41;21.90;;;13.52;;
22687;SDS011;11511;51.514;7.080;2023-04-09T08:12:07;20.15;;;13.98;;
22687;SDS011;11511;51.514;7.080;2023-04-09T08:14:33;20.05;;;13.38;;
22687;SDS011;11511;51.514;7.080;2023-04-09T08:16:59;18.38;;;13.30;;
22687;SDS011;11511;51.514;7.080;2023-04-09T08:19:25;16.52;;;12.07;;
22687;SDS011;11511;51.514;7.080;2023-04-09T08:21:51;15.60;;;12.10;;
22687;SDS011;11511;51.514;7.080;2023-04-09T08:24:17;15.73;;;11.65;;
22687;SDS011;11511;51.514;7.080;2023-04-09T08:26:43;16.10;;;11.48;;
22687;SDS011;11511;51.514;7.080;2023-04-09T08:29:10;16.75;;;11.85;;
22687;SDS011;11511;51.514;7.080;2023-04-09T08:31:37;19.65;;;13.45;;
22687;SDS011;11511;51.514;7.080;2023-04-09T08:34:04;25.75;;;17.02;;
22687;SDS011;11511;51.514;7.080;2023-04-09T08:36:30;19.35;;;14.20;;
22687;SDS011;11511;51.514;7.080;2023-04-09T08:38:57;14.65;;;11.75;;
22687;SDS011;11511;51.514;7.080;2023-04-09T08:41:25;13.88;;;10.82;;
22687;SDS011;11511;51.514;7.080;2023-04-09T08:43:54;13.82;;;10.25;;
22687;SDS011;11511;51.514;7.080;2023-04-09T08:46:21;11.82;;;9.43;;
22687;SDS011;11511;51.514;7.080;2023-04-09T08:48:48;13.88;;;9.77;;
22687;SDS011;11511;51.514;7.080;2023-04-09T08:51:14;11.82;;;9.60;;
22687;SDS011;11511;51.514;7.080;2023-04-09T08:53:44;11.65;;;9.02;;
22687;SDS011;11511;51.514;7.080;2023-04-09T08:56:12;10.23;;;8.00;;
22687;SDS011;11511;51.514;7.080;2023-04-09T08:58:41;10.40;;;7.97;;
22687;SDS011;11511;51.514;7.080;2023-04-09T09:06:22;8.95;;;7.45;;
22687;SDS011;11511;51.514;7.080;2023-04-09T09:11:33;8.52;;;6.93;;
22687;SDS011;11511;51.514;7.080;2023-04-09T09:14:00;10.77;;;7.82;;
22687;SDS011;11511;51.514;7.080;2023-04-09T09:16:27;9.25;;;7.45;;
22687;SDS011;11511;51.514;7.080;2023-04-09T09:18:53;9.73;;;7.43;;
22687;SDS011;11511;51.514;7.080;2023-04-09T09:21:20;8.52;;;7.20;;
22687;SDS011;11511;51.514;7.080;2023-04-09T09:23:46;8.18;;;6.70;;
22687;SDS011;11511;51.514;7.080;2023-04-09T09:26:15;7.80;;;6.25;;
22687;SDS011;11511;51.514;7.080;2023-04-09T09:28:44;6.82;;;5.35;;
22687;SDS011;11511;51.514;7.080;2023-04-09T09:31:11;7.88;;;5.25;;
22687;SDS011;11511;51.514;7.080;2023-04-09T09:33:37;7.38;;;5.68;;
22687;SDS011;11511;51.514;7.080;2023-04-09T09:36:04;7.10;;;5.35;;
22687;SDS011;11511;51.514;7.080;2023-04-09T09:38:30;6.57;;;5.63;;
22687;SDS011;11511;51.514;7.080;2023-04-09T09:40:56;6.93;;;5.32;;
22687;SDS011;11511;51.514;7.080;2023-04-09T09:43:23;6.28;;;5.53;;
22687;SDS011;11511;51.514;7.080;2023-04-09T09:45:49;7.53;;;5.40;;
22687;SDS011;11511;51.514;7.080;2023-04-09T09:48:15;6.35;;;5.28;;
22687;SDS011;11511;51.514;7.080;2023-04-09T09:50:41;5.88;;;5.18;;
22687;SDS011;11511;51.514;7.080;2023-04-09T09:53:08;6.47;;;5.50;;
22687;SDS011;11511;51.514;7.080;2023-04-09T09:55:39;6.38;;;5.50;;
22687;SDS011;11511;51.514;7.080;2023-04-09T09:58:27;5.03;;;4.50;;
22687;SDS011;11511;51.514;7.080;2023-04-09T10:00:51;6.55;;;5.38;;
22687;SDS011;11511;51.514;7.080;2023-04-09T10:03:19;6.72;;;5.47;;
22687;SDS011;11511;51.514;7.080;2023-04-09T10:05:46;6.72;;;5.43;;
22687;SDS011;11511;51.514;7.080;2023-04-09T10:08:13;6.45;;;5.22;;
22687;SDS011;11511;51.514;7.080;2023-04-09T10:10:40;6.55;;;5.28;;
22687;SDS011;11511;51.514;7.080;2023-04-09T10:13:08;6.80;;;5.60;;
22687;SDS011;11511;51.514;7.080;2023-04-09T10:15:39;6.78;;;5.40;;
22687;SDS011;11511;51.514;7.080;2023-04-09T10:18:07;6.53;;;5.25;;
22687;SDS011;11511;51.514;7.080;2023-04-09T10:20:39;9.18;;;7.00;;
22687;SDS011;11511;51.514;7.080;2023-04-09T10:23:08;7.70;;;6.32;;
22687;SDS011;11511;51.514;7.080;2023-04-09T10:25:36;7.32;;;6.25;;
22687;SDS011;11511;51.514;7.080;2023-04-09T10:28:02;7.13;;;5.57;;
22687;SDS011;11511;51.514;7.080;2023-04-09T10:30:39;9.93;;;7.50;;
22687;SDS011;11511;51.514;7.080;2023-04-09T10:33:15;7.60;;;6.30;;
22687;SDS011;11511;51.514;7.080;2023-04-09T10:35:42;6.97;;;5.60;;
22687;SDS011;11511;51.514;7.080;2023-04-09T10:38:08;6.32;;;5.40;;
22687;SDS011;11511;51.514;7.080;2023-04-09T10:43:28;8.13;;;6.20;;
22687;SDS011;11511;51.514;7.080;2023-04-09T10:45:55;6.05;;;4.93;;
22687;SDS011;11511;51.514;7.080;2023-04-09T10:48:22;6.30;;;5.28;;
22687;SDS011;11511;51.514;7.080;2023-04-09T10:50:50;6.78;;;5.82;;
22687;SDS011;11511;51.514;7.080;2023-04-09T10:53:23;6.60;;;5.50;;
22687;SDS011;11511;51.514;7.080;2023-04-09T10:55:49;6.85;;;5.63;;
22687;SDS011;11511;51.514;7.080;2023-04-09T10:58:16;6.10;;;5.22;;
22687;SDS011;11511;51.514;7.080;2023-04-09T11:00:43;6.45;;;5.55;;
22687;SDS011;11511;51.514;7.080;2023-04-09T11:05:35;5.82;;;5.05;;
22687;SDS011;11511;51.514;7.080;2023-04-09T11:08:11;5.70;;;5.20;;
22687;SDS011;11511;51.514;7.080;2023-04-09T11:10:38;6.93;;;5.60;;
22687;SDS011;11511;51.514;7.080;2023-04-09T11:13:05;4.97;;;4.47;;
22687;SDS011;11511;51.514;7.080;2023-04-09T11:15:33;5.85;;;5.10;;
22687;SDS011;11511;51.514;7.080;2023-04-09T11:18:00;5.53;;;5.03;;
22687;SDS011;11511;51.514;7.080;2023-04-09T11:20:26;6.22;;;4.65;;
22687;SDS011;11511;51.514;7.080;2023-04-09T11:22:54;13.43;;;9.65;;
22687;SDS011;11511;51.514;7.080;2023-04-09T11:25:21;9.63;;;7.32;;
22687;SDS011;11511;51.514;7.080;2023-04-09T11:27:47;8.73;;;7.00;;
22687;SDS011;11511;51.514;7.080;2023-04-09T11:30:13;6.38;;;5.20;;
22687;SDS011;11511;51.514;7.080;2023-04-09T11:32:40;5.82;;;4.90;;
22687;SDS011;11511;51.514;7.080;2023-04-09T11:35:16;6.22;;;5.10;;
22687;SDS011;11511;51.514;7.080;2023-04-09T11:37:42;5.30;;;4.65;;
22687;SDS011;11511;51.514;7.080;2023-04-09T11:40:16;6.07;;;5.20;;
22687;SDS011;11511;51.514;7.080;2023-04-09T11:42:43;9.50;;;6.50;;
22687;SDS011;11511;51.514;7.080;2023-04-09T11:45:09;5.97;;;5.38;;
22687;SDS011;11511;51.514;7.080;2023-04-09T11:47:36;5.93;;;5.30;;
22687;SDS011;11511;51.514;7.080;2023-04-09T11:50:04;5.95;;;5.15;;
22687;SDS011;11511;51.514;7.080;2023-04-09T11:52:31;6.55;;;5.55;;
22687;SDS011;11511;51.514;7.080;2023-04-09T11:55:00;5.90;;;4.72;;
22687;SDS011;11511;51.514;7.080;2023-04-09T11:57:42;5.88;;;5.28;;
22687;SDS011;11511;51.514;7.080;2023-04-09T12:00:12;5.40;;;4.88;;
22687;SDS011;11511;51.514;7.080;2023-04-09T12:02:43;6.07;;;5.32;;
22687;SDS011;11511;51.514;7.080;2023-04-09T12:05:11;9.05;;;6.07;;
22687;SDS011;11511;51.514;7.080;2023-04-09T12:07:38;8.70;;;5.50;;
22687;SDS011;11511;51.514;7.080;2023-04-09T12:10:08;5.90;;;4.80;;
22687;SDS011;11511;51.514;7.080;2023-04-09T12:12:45;7.25;;;5.95;;
22687;SDS011;11511;51.514;7.080;2023-04-09T12:17:38;6.47;;;5.50;;
22687;SDS011;11511;51.514;7.080;2023-04-09T12:20:04;6.55;;;5.72;;
22687;SDS011;11511;51.514;7.080;2023-04-09T12:22:32;8.07;;;6.65;;
22687;SDS011;11511;51.514;7.080;2023-04-09T12:24:59;7.20;;;6.10;;
22687;SDS011;11511;51.514;7.080;2023-04-09T12:27:25;6.45;;;5.25;;
22687;SDS011;11511;51.514;7.080;2023-04-09T12:29:52;6.45;;;5.18;;
22687;SDS011;11511;51.514;7.080;2023-04-09T12:32:18;6.60;;;5.53;;
22687;SDS011;11511;51.514;7.080;2023-04-09T12:34:44;8.27;;;5.65;;
22687;SDS011;11511;51.514;7.080;2023-04-09T12:37:11;6.88;;;5.35;;
22687;SDS011;11511;51.514;7.080;2023-04-09T12:39:37;5.63;;;5.03;;
22687;SDS011;11511;51.514;7.080;2023-04-09T12:42:03;6.30;;;5.65;;
22687;SDS011;11511;51.514;7.080;2023-04-09T12:44:29;6.82;;;5.55;;
22687;SDS011;11511;51.514;7.080;2023-04-09T12:46:57;6.72;;;5.43;;
22687;SDS011;11511;51.514;7.080;2023-04-09T12:49:23;8.05;;;5.50;;
22687;SDS011;11511;51.514;7.080;2023-04-09T12:51:49;6.63;;;5.47;;
22687;SDS011;11511;51.514;7.080;2023-04-09T12:54:17;7.00;;;5.75;;
22687;SDS011;11511;51.514;7.080;2023-04-09T12:56:47;7.55;;;5.13;;
22687;SDS011;11511;51.514;7.080;2023-04-09T12:59:16;7.10;;;4.93;;
22687;SDS011;11511;51.514;7.080;2023-04-09T13:01:44;8.20;;;5.75;;
22687;SDS011;11511;51.514;7.080;2023-04-09T13:04:10;6.88;;;5.18;;
22687;SDS011;11511;51.514;7.080;2023-04-09T13:06:37;6.20;;;5.47;;
22687;SDS011;11511;51.514;7.080;2023-04-09T13:09:03;6.55;;;5.43;;
22687;SDS011;11511;51.514;7.080;2023-04-09T13:11:29;5.70;;;5.10;;
22687;SDS011;11511;51.514;7.080;2023-04-09T13:13:55;6.20;;;5.45;;
22687;SDS011;11511;51.514;7.080;2023-04-09T13:16:21;6.68;;;5.57;;
22687;SDS011;11511;51.514;7.080;2023-04-09T13:18:47;5.45;;;4.55;;
22687;SDS011;11511;51.514;7.080;2023-04-09T13:21:13;28.80;;;18.58;;
22687;SDS011;11511;51.514;7.080;2023-04-09T13:23:42;6.13;;;5.38;;
22687;SDS011;11511;51.514;7.080;2023-04-09T13:26:08;6.90;;;5.07;;
22687;SDS011;11511;51.514;7.080;2023-04-09T13:28:35;5.72;;;4.78;;
22687;SDS011;11511;51.514;7.080;2023-04-09T13:31:01;7.13;;;5.45;;
22687;SDS011;11511;51.514;7.080;2023-04-09T13:33:27;7.03;;;5.30;;
22687;SDS011;11511;51.514;7.080;2023-04-09T13:35:53;6.68;;;5.30;;
22687;SDS011;11511;51.514;7.080;2023-04-09T13:38:19;6.28;;;5.03;;
22687;SDS011;11511;51.514;7.080;2023-04-09T13:40:45;6.60;;;5.38;;
22687;SDS011;11511;51.514;7.080;2023-04-09T13:43:11;7.13;;;5.22;;
22687;SDS011;11511;51.514;7.080;2023-04-09T13:45:37;6.22;;;5.00;;
22687;SDS011;11511;51.514;7.080;2023-04-09T13:48:04;5.72;;;5.07;;
22687;SDS011;11511;51.514;7.080;2023-04-09T13:50:31;6.38;;;5.00;;
22687;SDS011;11511;51.514;7.080;2023-04-09T13:52:57;6.93;;;5.43;;
22687;SDS011;11511;51.514;7.080;2023-04-09T13:55:23;9.40;;;5.05;;
22687;SDS011;11511;51.514;7.080;2023-04-09T13:57:49;6.43;;;5.03;;
22687;SDS011;11511;51.514;7.080;2023-04-09T14:00:15;7.88;;;5.07;;
22687;SDS011;11511;51.514;7.080;2023-04-09T14:02:41;6.13;;;4.93;;
22687;SDS011;11511;51.514;7.080;2023-04-09T14:05:07;6.57;;;4.90;;
22687;SDS011;11511;51.514;7.080;2023-04-09T14:07:33;6.10;;;5.38;;
22687;SDS011;11511;51.514;7.080;2023-04-09T14:09:59;7.43;;;5.88;;
22687;SDS011;11511;51.514;7.080;2023-04-09T14:12:25;6.70;;;5.43;;
22687;SDS011;11511;51.514;7.080;2023-04-09T14:14:51;6.35;;;5.45;;
22687;SDS011;11511;51.514;7.080;2023-04-09T14:17:17;7.15;;;5.45;;
22687;SDS011;11511;51.514;7.080;2023-04-09T14:19:43;8.27;;;5.80;;
22687;SDS011;11511;51.514;7.080;2023-04-09T14:22:09;5.60;;;5.00;;
22687;SDS011;11511;51.514;7.080;2023-04-09T14:24:36;7.22;;;5.40;;
22687;SDS011;11511;51.514;7.080;2023-04-09T14:27:04;7.35;;;5.80;;
22687;SDS011;11511;51.514;7.080;2023-04-09T14:29:30;6.65;;;5.75;;
22687;SDS011;11511;51.514;7.080;2023-04-09T14:31:57;6.15;;;5.45;;
22687;SDS011;11511;51.514;7.080;2023-04-09T14:34:24;12.07;;;5.28;;
